createdAt,value
2017-12-16T00:01:12.467Z,17.08
2017-12-16T00:03:40.221Z,17.52
2017-12-16T00:06:07.750Z,18.92
2017-12-16T00:08:35.384Z,20.35
2017-12-16T00:11:05.329Z,19.42
2017-12-16T00:13:32.952Z,18.90
2017-12-16T00:16:03.019Z,18.02
2017-12-16T00:18:30.578Z,19.80
2017-12-16T00:20:59.276Z,17.62
2017-12-16T00:23:26.954Z,16.50
2017-12-16T00:25:54.548Z,17.23
2017-12-16T00:28:22.196Z,17.62
2017-12-16T00:30:50.190Z,17.23
2017-12-16T00:33:17.690Z,18.37
2017-12-16T00:35:45.991Z,17.92
2017-12-16T00:38:13.473Z,18.95
2017-12-16T00:40:40.959Z,17.85
2017-12-16T00:43:08.719Z,18.33
2017-12-16T00:45:36.250Z,15.38
2017-12-16T00:48:03.750Z,19.15
2017-12-16T00:50:31.218Z,19.55
2017-12-16T00:52:59.444Z,18.25
2017-12-16T00:55:27.056Z,18.50
2017-12-16T00:57:54.696Z,21.25
2017-12-16T01:00:25.966Z,17.98
2017-12-16T01:02:53.518Z,19.65
2017-12-16T01:05:22.172Z,19.87
2017-12-16T01:07:49.678Z,20.15
2017-12-16T01:10:17.211Z,18.35
2017-12-16T01:12:45.742Z,21.55
2017-12-16T01:15:13.285Z,20.00
2017-12-16T01:17:40.904Z,20.60
2017-12-16T01:20:08.395Z,21.37
2017-12-16T01:22:35.896Z,22.23
2017-12-16T01:25:03.475Z,21.25
2017-12-16T01:27:31.043Z,20.70
2017-12-16T01:29:58.658Z,22.58
2017-12-16T01:32:26.452Z,23.60
2017-12-16T01:35:05.878Z,21.52
2017-12-16T01:37:45.244Z,23.95
2017-12-16T01:40:13.612Z,21.62
2017-12-16T01:42:41.260Z,22.65
2017-12-16T01:45:08.860Z,23.00
2017-12-16T01:47:36.402Z,22.40
2017-12-16T01:50:03.981Z,22.98
2017-12-16T01:52:31.620Z,22.15
2017-12-16T01:55:00.045Z,23.52
2017-12-16T01:57:30.195Z,21.65
2017-12-16T02:00:01.075Z,23.80
2017-12-16T02:02:28.584Z,24.35
2017-12-16T02:07:47.510Z,21.87
2017-12-16T02:10:16.183Z,21.35
2017-12-16T02:13:03.456Z,21.90
2017-12-16T02:15:31.109Z,22.25
2017-12-16T02:21:33.538Z,23.85
2017-12-16T02:24:16.521Z,20.45
2017-12-16T02:29:46.904Z,21.10
2017-12-16T03:26:52.589Z,22.65
2017-12-16T03:29:29.591Z,23.05
2017-12-16T03:31:57.929Z,24.15
2017-12-16T03:46:34.077Z,22.73
2017-12-16T03:55:04.519Z,20.73
2017-12-16T04:00:42.542Z,18.67
2017-12-16T04:08:57.582Z,21.12
2017-12-16T04:14:21.814Z,21.45
2017-12-16T04:19:55.187Z,20.50
2017-12-16T04:27:10.601Z,19.20
2017-12-16T04:36:24.622Z,20.20
2017-12-16T04:38:53.679Z,18.67
2017-12-16T04:41:22.934Z,17.20
2017-12-16T04:43:56.703Z,20.20
2017-12-16T04:46:27.961Z,20.60
2017-12-16T05:06:18.108Z,18.62
2017-12-16T05:08:47.675Z,19.50
2017-12-16T05:11:24.576Z,17.00
2017-12-16T05:14:02.780Z,18.50
2017-12-16T05:16:41.709Z,17.00
2017-12-16T06:51:08.638Z,14.98
2017-12-16T06:53:43.167Z,16.75
2017-12-16T06:56:10.700Z,16.80
2017-12-16T06:58:38.163Z,15.70
2017-12-16T07:01:05.620Z,17.20
2017-12-16T07:03:33.865Z,18.17
2017-12-16T07:06:01.351Z,16.73
2017-12-16T07:08:28.826Z,15.98
2017-12-16T07:10:57.078Z,18.12
2017-12-16T07:13:25.363Z,17.17
2017-12-16T07:15:53.635Z,15.75
2017-12-16T07:18:21.270Z,19.42
2017-12-16T07:20:48.751Z,17.58
2017-12-16T07:23:16.232Z,20.88
2017-12-16T07:25:44.498Z,17.00
2017-12-16T07:28:13.260Z,17.85
2017-12-16T07:30:41.904Z,20.23
2017-12-16T07:33:09.403Z,20.00
2017-12-16T07:35:39.406Z,20.20
2017-12-16T07:38:06.937Z,19.17
2017-12-16T07:40:34.464Z,19.12
2017-12-16T07:43:02.545Z,16.98
2017-12-16T07:45:30.089Z,17.33
2017-12-16T07:47:59.255Z,16.52
2017-12-16T07:50:26.745Z,18.90
2017-12-16T07:52:54.988Z,16.55
2017-12-16T07:55:22.575Z,17.20
2017-12-16T07:57:52.947Z,19.20
2017-12-16T08:00:20.442Z,17.95
2017-12-16T08:02:47.908Z,18.65
2017-12-16T08:05:15.358Z,16.15
2017-12-16T08:07:42.875Z,17.62
2017-12-16T08:10:12.943Z,15.23
2017-12-16T08:12:40.395Z,16.12
2017-12-16T08:15:08.012Z,15.35
2017-12-16T08:17:35.523Z,15.30
2017-12-16T08:20:02.977Z,16.30
2017-12-16T08:22:32.228Z,16.52
2017-12-16T08:24:59.787Z,17.67
2017-12-16T08:27:27.251Z,16.27
2017-12-16T08:29:54.743Z,16.90
2017-12-16T08:32:22.316Z,18.70
2017-12-16T08:34:49.765Z,18.45
2017-12-16T08:37:17.221Z,17.30
2017-12-16T08:39:44.689Z,17.25
2017-12-16T08:42:12.139Z,17.50
2017-12-16T08:44:39.610Z,17.62
2017-12-16T08:47:07.072Z,19.12
2017-12-16T08:49:34.631Z,18.58
2017-12-16T08:52:02.163Z,18.90
2017-12-16T08:54:29.655Z,17.35
2017-12-16T08:56:57.134Z,17.17
2017-12-16T08:59:24.601Z,17.15
2017-12-16T09:01:52.056Z,17.10
2017-12-16T09:04:19.530Z,16.05
2017-12-16T09:06:47.027Z,18.00
2017-12-16T09:09:14.489Z,16.37
2017-12-16T09:11:41.986Z,15.15
2017-12-16T09:14:09.482Z,14.02
2017-12-16T09:16:37.069Z,13.95
2017-12-16T09:19:04.556Z,14.77
2017-12-16T09:21:32.021Z,14.20
2017-12-16T09:23:59.498Z,14.43
2017-12-16T09:26:26.960Z,12.32
2017-12-16T09:28:54.433Z,13.32
2017-12-16T09:31:22.654Z,12.73
2017-12-16T09:33:50.171Z,11.63
2017-12-16T09:36:17.705Z,12.70
2017-12-16T09:38:46.845Z,12.77
2017-12-16T09:41:16.529Z,13.45
2017-12-16T09:43:44.489Z,12.88
2017-12-16T09:46:12.990Z,11.68
2017-12-16T09:48:40.538Z,11.57
2017-12-16T09:51:07.946Z,10.27
2017-12-16T09:53:35.500Z,11.75
2017-12-16T09:56:02.995Z,10.90
2017-12-16T09:58:30.533Z,10.50
2017-12-16T10:00:58.073Z,10.80
2017-12-16T10:03:25.554Z,9.18
2017-12-16T10:05:53.036Z,10.25
2017-12-16T10:08:20.545Z,9.70
2017-12-16T10:10:48.019Z,8.00
2017-12-16T10:13:15.514Z,10.07
2017-12-16T10:15:43.052Z,7.25
2017-12-16T10:18:10.498Z,9.30
2017-12-16T10:20:37.960Z,7.25
2017-12-16T10:23:05.470Z,7.85
2017-12-16T10:25:32.923Z,7.78
2017-12-16T10:28:00.374Z,8.10
2017-12-16T10:30:27.819Z,8.50
2017-12-16T10:32:56.062Z,7.12
2017-12-16T10:35:23.560Z,7.80
2017-12-16T10:37:59.368Z,7.28
2017-12-16T10:40:26.851Z,6.62
2017-12-16T10:42:54.586Z,6.10
2017-12-16T10:45:22.075Z,7.65
2017-12-16T10:47:49.535Z,7.40
2017-12-16T10:50:17.780Z,8.32
2017-12-16T10:52:45.267Z,5.90
2017-12-16T10:55:13.508Z,5.47
2017-12-16T10:57:41.002Z,5.50
2017-12-16T11:00:08.540Z,6.05
2017-12-16T11:02:36.037Z,4.40
2017-12-16T11:05:03.596Z,4.60
2017-12-16T11:07:31.046Z,4.50
2017-12-16T11:09:58.796Z,5.12
2017-12-16T11:12:26.300Z,3.45
2017-12-16T11:14:55.228Z,3.80
2017-12-16T11:17:22.718Z,4.90
2017-12-16T11:19:50.174Z,3.55
2017-12-16T11:22:18.418Z,4.20
2017-12-16T11:24:45.903Z,5.25
2017-12-16T11:27:13.407Z,4.03
2017-12-16T11:29:41.365Z,4.30
2017-12-16T11:32:08.797Z,4.60
2017-12-16T11:34:36.313Z,3.08
2017-12-16T11:37:04.838Z,4.37
2017-12-16T11:39:33.170Z,4.45
2017-12-16T11:42:01.222Z,3.83
2017-12-16T11:44:29.661Z,4.45
2017-12-16T11:46:57.222Z,3.65
2017-12-16T11:49:24.724Z,3.25
2017-12-16T11:51:52.393Z,3.55
2017-12-16T11:54:19.887Z,4.68
2017-12-16T11:59:45.523Z,2.60
2017-12-16T12:05:05.612Z,2.80
2017-12-16T12:07:33.233Z,3.15
2017-12-16T12:10:02.037Z,2.40
2017-12-16T12:12:29.742Z,2.90
2017-12-16T12:14:57.365Z,2.35
2017-12-16T12:17:24.904Z,3.05
2017-12-16T12:19:52.471Z,3.03
2017-12-16T12:22:19.962Z,3.22
2017-12-16T12:24:47.430Z,2.90
2017-12-16T12:27:16.086Z,2.10
2017-12-16T12:29:43.583Z,2.70
2017-12-16T12:32:11.114Z,2.70
2017-12-16T12:34:38.554Z,2.92
2017-12-16T12:37:06.022Z,2.42
2017-12-16T12:39:33.457Z,1.98
2017-12-16T12:42:00.903Z,2.20
2017-12-16T12:44:28.393Z,2.40
2017-12-16T12:46:55.935Z,2.00
2017-12-16T12:49:23.717Z,2.72
2017-12-16T12:51:51.183Z,2.15
2017-12-16T12:54:19.437Z,1.60
2017-12-16T12:56:46.919Z,2.28
2017-12-16T12:59:15.141Z,2.12
2017-12-16T13:01:42.618Z,1.80
2017-12-16T13:04:10.073Z,1.83
2017-12-16T13:06:37.538Z,2.05
2017-12-16T13:09:05.077Z,1.45
2017-12-16T13:11:32.526Z,1.90
2017-12-16T13:14:00.013Z,1.70
2017-12-16T13:16:27.450Z,1.62
2017-12-16T13:18:55.022Z,2.25
2017-12-16T13:21:22.736Z,2.50
2017-12-16T13:23:50.262Z,3.87
2017-12-16T13:26:17.718Z,1.20
2017-12-16T13:28:45.182Z,2.10
2017-12-16T13:31:12.664Z,1.60
2017-12-16T13:33:40.120Z,2.80
2017-12-16T13:36:07.578Z,1.50
2017-12-16T13:38:35.035Z,2.03
2017-12-16T13:41:02.496Z,1.75
2017-12-16T13:43:29.942Z,1.73
2017-12-16T13:45:57.377Z,1.60
2017-12-16T13:48:24.828Z,1.73
2017-12-16T13:50:52.287Z,1.60
2017-12-16T13:53:19.748Z,2.28
2017-12-16T13:55:47.213Z,2.15
2017-12-16T13:58:14.658Z,1.75
2017-12-16T14:00:42.882Z,1.70
2017-12-16T14:03:10.362Z,1.40
2017-12-16T14:05:37.861Z,1.20
2017-12-16T14:08:06.104Z,1.48
2017-12-16T14:10:33.693Z,1.60
2017-12-16T14:13:01.174Z,1.83
2017-12-16T14:15:28.610Z,2.10
2017-12-16T14:17:56.861Z,1.77
2017-12-16T14:20:24.493Z,1.87
2017-12-16T14:22:52.147Z,2.12
2017-12-16T14:25:19.665Z,1.90
2017-12-16T14:27:47.210Z,0.98
2017-12-16T14:30:14.887Z,1.40
2017-12-16T14:32:42.484Z,1.90
2017-12-16T14:35:09.996Z,1.70
2017-12-16T14:37:38.306Z,2.17
2017-12-16T14:40:05.892Z,1.90
2017-12-16T14:42:34.002Z,2.67
2017-12-16T14:45:02.330Z,2.97
2017-12-16T14:47:31.057Z,2.10
2017-12-16T14:49:58.614Z,3.47
2017-12-16T14:52:26.385Z,2.90
2017-12-16T14:54:53.866Z,2.97
2017-12-16T14:57:21.383Z,3.03
2017-12-16T14:59:48.875Z,3.10
2017-12-16T15:02:17.151Z,3.62
2017-12-16T15:04:44.620Z,3.20
2017-12-16T15:07:12.157Z,3.15
2017-12-16T15:09:39.657Z,2.87
2017-12-16T15:12:07.154Z,2.20
2017-12-16T15:14:34.628Z,2.58
2017-12-16T15:17:02.219Z,2.80
2017-12-16T15:19:29.752Z,3.55
2017-12-16T15:21:57.314Z,2.37
2017-12-16T15:24:24.784Z,2.15
2017-12-16T15:26:52.247Z,1.95
2017-12-16T15:29:19.742Z,2.62
2017-12-16T15:31:48.207Z,2.20
2017-12-16T15:34:15.847Z,2.90
2017-12-16T15:36:44.253Z,2.67
2017-12-16T15:39:11.736Z,2.00
2017-12-16T15:41:39.247Z,2.53
2017-12-16T15:44:06.754Z,3.53
2017-12-16T15:46:34.248Z,2.85
2017-12-16T15:49:01.705Z,2.65
2017-12-16T15:51:29.935Z,2.80
2017-12-16T15:53:57.414Z,2.12
2017-12-16T15:56:24.946Z,2.10
2017-12-16T15:58:52.444Z,2.53
2017-12-16T16:01:19.928Z,2.65
2017-12-16T16:03:47.398Z,3.47
2017-12-16T16:06:14.858Z,2.60
2017-12-16T16:08:42.386Z,2.83
2017-12-16T16:11:09.833Z,1.80
2017-12-16T16:13:37.300Z,2.75
2017-12-16T16:16:04.752Z,2.85
2017-12-16T16:18:32.191Z,2.00
2017-12-16T16:21:00.449Z,2.50
2017-12-16T16:23:27.930Z,3.03
2017-12-16T16:25:56.165Z,2.28
2017-12-16T16:28:23.646Z,2.50
2017-12-16T16:30:51.122Z,2.10
2017-12-16T16:33:19.395Z,2.37
2017-12-16T16:35:46.854Z,2.22
2017-12-16T16:38:15.075Z,2.62
2017-12-16T16:40:42.613Z,2.78
2017-12-16T16:43:10.091Z,2.42
2017-12-16T16:45:37.563Z,2.60
2017-12-16T16:48:05.056Z,2.47
2017-12-16T16:50:32.519Z,2.75
2017-12-16T16:53:00.006Z,2.05
2017-12-16T16:55:27.487Z,4.18
2017-12-16T16:57:55.198Z,3.15
2017-12-16T17:00:22.728Z,2.80
2017-12-16T17:02:51.051Z,3.20
2017-12-16T17:05:18.539Z,3.22
2017-12-16T17:07:46.039Z,3.40
2017-12-16T17:10:13.553Z,4.82
2017-12-16T17:12:41.031Z,4.05
2017-12-16T17:15:08.499Z,3.75
2017-12-16T17:17:36.049Z,3.50
2017-12-16T17:20:04.003Z,1.95
2017-12-16T17:22:31.508Z,3.25
2017-12-16T17:25:03.058Z,3.05
2017-12-16T17:27:30.612Z,2.65
2017-12-16T17:29:58.158Z,2.92
2017-12-16T17:32:28.435Z,3.00
2017-12-16T17:34:58.788Z,4.03
2017-12-16T17:37:28.730Z,2.65
2017-12-16T17:39:57.281Z,2.90
2017-12-16T17:42:26.268Z,2.55
2017-12-16T17:44:56.070Z,3.05
2017-12-16T17:47:24.522Z,2.83
2017-12-16T17:49:53.863Z,3.10
2017-12-16T17:52:32.627Z,3.08
2017-12-16T17:55:08.411Z,3.20
2017-12-16T17:57:40.029Z,2.87
2017-12-16T18:00:09.112Z,2.90
2017-12-16T18:02:38.411Z,2.72
2017-12-16T18:05:08.200Z,2.67
2017-12-16T18:07:36.745Z,3.00
2017-12-16T18:12:38.787Z,3.20
2017-12-16T18:15:06.554Z,2.65
2017-12-16T18:17:36.256Z,2.45
2017-12-16T18:20:03.737Z,3.17
2017-12-16T18:22:31.260Z,2.60
2017-12-16T18:24:58.741Z,2.70
2017-12-16T18:27:26.243Z,3.05
2017-12-16T18:29:53.772Z,4.05
2017-12-16T18:32:21.293Z,2.87
2017-12-16T18:34:48.869Z,2.83
2017-12-16T18:37:16.508Z,3.15
2017-12-16T18:39:44.076Z,2.67
2017-12-16T18:42:11.560Z,3.22
2017-12-16T18:44:39.188Z,3.12
2017-12-16T18:47:06.771Z,3.85
2017-12-16T18:49:34.275Z,3.30
2017-12-16T18:52:03.070Z,3.12
2017-12-16T18:54:30.583Z,2.50
2017-12-16T18:56:59.289Z,3.58
2017-12-16T18:59:27.589Z,3.15
2017-12-16T19:01:55.527Z,3.67
2017-12-16T19:04:23.076Z,3.20
2017-12-16T19:06:50.808Z,3.12
2017-12-16T19:09:18.590Z,3.55
2017-12-16T19:11:48.854Z,3.08
2017-12-16T19:14:17.074Z,5.37
2017-12-16T19:16:44.607Z,5.40
2017-12-16T19:19:16.914Z,2.62
2017-12-16T19:21:44.446Z,2.53
2017-12-16T19:24:11.923Z,3.67
2017-12-16T19:26:39.442Z,2.70
2017-12-16T19:29:06.925Z,2.90
2017-12-16T19:31:35.094Z,2.70
2017-12-16T19:34:04.161Z,2.80
2017-12-16T19:44:54.737Z,2.90
2017-12-16T19:47:30.033Z,4.00
2017-12-16T19:49:59.613Z,3.60
2017-12-16T23:01:22.426Z,5.20
2017-12-16T23:26:24.199Z,3.72
2017-12-16T23:28:53.328Z,3.45
2017-12-16T23:44:28.107Z,3.92
2017-12-16T23:47:00.397Z,4.20
2017-12-16T23:49:51.677Z,4.53
2017-12-16T23:52:22.375Z,4.35
2017-12-16T23:58:11.807Z,4.90
